Time;durP1;ratioP1;P1;durP2;ratioP2;P2;SDS_P1;SDS_P2;PMS_P1;PMS_P2;Temp;Humidity;BMP_temperature;BMP_pressure;BME280_temperature;BME280_humidity;BME280_pressure;Samples;Min_cycle;Max_cycle;Signal;HPM_P1;HPM_P2
2022/10/16 00:01:38;;;;;;;4.03;1.87;;;;;;;13.47;60.32;99711.09;4990356;28;20569;-88
2022/10/16 00:04:04;;;;;;;4.30;2.57;;;;;;;13.40;60.24;99707.13;4974846;28;20176;-88
2022/10/16 00:06:31;;;;;;;9.47;2.67;;;;;;;13.39;60.24;99710.66;4975216;28;20565;-88
2022/10/16 00:08:57;;;;;;;6.30;2.20;;;;;;;13.41;60.56;99711.47;4989980;28;20193;-88
2022/10/16 00:11:36;;;;;;;8.00;1.77;;;;;;;13.33;60.30;99710.19;4974968;28;20191;-88
2022/10/16 00:14:03;;;;;;;5.53;1.87;;;;;;;13.42;60.50;99712.28;4974985;28;20697;-88
2022/10/16 00:16:30;;;;;;;6.13;2.47;;;;;;;13.36;60.55;99712.66;4989902;28;20180;-88
2022/10/16 00:18:56;;;;;;;6.53;2.33;;;;;;;13.33;60.55;99708.41;4974676;28;20190;-87
2022/10/16 00:21:25;;;;;;;2.40;1.27;;;;;;;13.20;60.85;99714.41;4974592;28;20253;-88
2022/10/16 00:23:56;;;;;;;4.97;1.57;;;;;;;13.09;61.73;99714.97;4973598;28;20189;-88
2022/10/16 00:26:22;;;;;;;5.50;1.90;;;;;;;13.16;62.09;99710.22;4974655;28;20678;-88
2022/10/16 00:28:49;;;;;;;9.33;2.77;;;;;;;13.02;62.18;99715.34;4974493;28;20188;-88
2022/10/16 00:31:17;;;;;;;9.23;2.40;;;;;;;12.94;62.35;99721.03;4989553;28;20203;-88
2022/10/16 00:33:43;;;;;;;8.67;2.33;;;;;;;12.90;62.22;99722.09;4974543;28;20187;-88
2022/10/16 00:36:12;;;;;;;8.03;2.23;;;;;;;12.95;61.28;99720.94;4974935;28;20172;-88
2022/10/16 00:38:37;;;;;;;3.97;2.20;;;;;;;12.90;61.27;99720.34;4989590;28;20187;-88
2022/10/16 00:41:04;;;;;;;6.60;2.97;;;;;;;12.86;61.11;99724.06;4974311;28;20180;-88
2022/10/16 00:43:43;;;;;;;8.63;2.87;;;;;;;12.81;60.19;99730.50;4989477;28;20714;-88
2022/10/16 00:46:23;;;;;;;5.07;2.00;;;;;;;12.86;59.98;99728.47;4989389;28;20652;-88
2022/10/16 00:49:00;;;;;;;5.30;2.00;;;;;;;12.80;59.83;99724.38;4989458;28;20666;-88
2022/10/16 00:51:33;;;;;;;8.63;2.20;;;;;;;12.71;59.67;99737.19;4974759;28;20320;-88
2022/10/16 00:53:59;;;;;;;4.67;2.60;;;;;;;12.71;59.27;99731.91;4974309;28;20186;-88
2022/10/16 00:56:25;;;;;;;6.43;3.10;;;;;;;12.64;59.37;99723.47;4974498;28;20182;-88
2022/10/16 00:58:51;;;;;;;4.50;2.23;;;;;;;12.63;58.72;99729.66;4974379;28;20184;-88
2022/10/16 01:01:17;;;;;;;6.00;3.07;;;;;;;12.58;58.96;99729.03;4974371;28;20182;-88
2022/10/16 01:03:42;;;;;;;6.03;2.97;;;;;;;12.56;58.97;99727.41;4974338;28;20622;-88
2022/10/16 01:06:27;;;;;;;6.10;2.47;;;;;;;12.48;59.39;99726.97;4989550;28;20579;-88
2022/10/16 01:09:54;;;;;;;4.60;2.23;;;;;;;12.41;59.58;99729.06;4974287;28;20353;-88
2022/10/16 01:12:44;;;;;;;13.63;2.50;;;;;;;12.42;60.10;99737.81;4953815;29;20192;-89
2022/10/16 01:15:31;;;;;;;11.17;2.90;;;;;;;12.39;59.96;99733.56;4937038;29;20277;-88
2022/10/16 01:18:16;;;;;;;6.17;2.40;;;;;;;12.37;59.81;99739.81;4964215;28;20191;-88
2022/10/16 01:21:03;;;;;;;5.23;2.43;;;;;;;12.28;59.89;99746.38;4990290;28;20504;-88
2022/10/16 01:23:42;;;;;;;7.73;2.13;;;;;;;12.14;60.57;99748.81;4989714;28;20185;-88
2022/10/16 01:26:30;;;;;;;4.57;2.17;;;;;;;12.13;60.60;99745.34;4990145;28;20206;-88
2022/10/16 01:29:01;;;;;;;5.87;2.77;;;;;;;12.15;60.77;99750.53;4974201;28;20196;-88
2022/10/16 01:31:31;;;;;;;8.60;2.47;;;;;;;12.12;60.75;99761.19;4989193;28;20233;-87
2022/10/16 01:34:17;;;;;;;8.53;2.40;;;;;;;12.09;61.34;99756.94;4989089;28;20615;-88
2022/10/16 01:37:07;;;;;;;7.47;2.87;;;;;;;12.05;62.05;99755.41;4972861;28;20540;-89
2022/10/16 01:39:37;;;;;;;10.40;2.63;;;;;;;12.13;62.10;99757.66;4989042;28;20181;-88
2022/10/16 01:42:16;;;;;;;10.47;3.27;;;;;;;12.09;61.92;99748.19;4974009;28;20178;-88
2022/10/16 01:44:43;;;;;;;4.33;2.27;;;;;;;12.16;61.92;99758.34;4990438;28;20197;-88
2022/10/16 01:47:10;;;;;;;8.77;2.37;;;;;;;12.17;61.90;99759.19;4977322;28;20192;-88
2022/10/16 01:49:38;;;;;;;4.90;2.40;;;;;;;12.13;61.55;99757.66;4977862;28;20187;-88
2022/10/16 01:52:09;;;;;;;8.37;2.37;;;;;;;12.14;61.64;99754.06;4977267;28;20180;-88
2022/10/16 01:54:37;;;;;;;4.33;2.37;;;;;;;12.24;61.21;99758.81;4977461;28;20304;-88
2022/10/16 01:57:06;;;;;;;7.17;2.67;;;;;;;12.36;60.56;99759.13;4977454;28;20263;-89
2022/10/16 01:59:35;;;;;;;6.80;2.87;;;;;;;12.27;60.35;99761.28;4977407;28;20644;-90
2022/10/16 02:02:06;;;;;;;4.53;2.00;;;;;;;12.16;60.70;99763.59;4977337;28;20179;-88
2022/10/16 02:04:36;;;;;;;5.17;2.17;;;;;;;12.17;60.92;99762.69;4977241;28;20206;-88
2022/10/16 02:07:01;;;;;;;4.33;1.77;;;;;;;12.10;60.56;99773.56;4977591;28;20170;-89
2022/10/16 02:09:27;;;;;;;8.50;2.53;;;;;;;12.09;60.97;99771.84;4977046;28;20589;-88
2022/10/16 02:11:56;;;;;;;3.80;2.00;;;;;;;12.07;61.45;99778.97;4975975;28;20252;-88
2022/10/16 02:14:24;;;;;;;13.57;2.13;;;;;;;12.06;61.65;99775.47;4976869;28;20193;-88
2022/10/16 02:16:50;;;;;;;6.87;1.97;;;;;;;12.00;62.06;99782.81;4976878;28;20181;-88
2022/10/16 02:19:21;;;;;;;3.70;2.23;;;;;;;11.97;62.52;99786.44;4977113;28;20268;-88
2022/10/16 02:21:49;;;;;;;5.00;2.23;;;;;;;11.97;62.51;99782.97;4977087;28;20167;-88
2022/10/16 02:24:38;;;;;;;2.43;1.47;;;;;;;11.98;62.34;99779.38;4976635;28;20180;-88
2022/10/16 02:27:17;;;;;;;6.47;2.50;;;;;;;11.95;62.12;99790.06;4976677;28;20180;-88
2022/10/16 02:29:50;;;;;;;6.93;3.40;;;;;;;11.89;61.94;99777.22;4976920;28;20179;-88
2022/10/16 02:32:20;;;;;;;5.07;2.70;;;;;;;11.90;61.43;99784.16;4976699;28;20196;-88
2022/10/16 02:34:48;;;;;;;9.00;2.90;;;;;;;11.84;61.35;99776.59;4976827;28;20162;-88
2022/10/16 02:37:16;;;;;;;5.47;3.17;;;;;;;11.86;61.01;99785.25;4976939;28;20245;-89
2022/10/16 02:39:41;;;;;;;4.97;2.63;;;;;;;11.86;61.08;99785.25;4976632;28;20189;-88
2022/10/16 02:42:12;;;;;;;5.90;2.90;;;;;;;11.77;61.53;99788.28;4976900;28;20247;-88
2022/10/16 02:44:38;;;;;;;4.70;2.53;;;;;;;11.72;61.61;99788.50;4991490;28;20197;-89
2022/10/16 02:47:04;;;;;;;5.60;2.47;;;;;;;11.75;61.80;99785.75;4976354;28;20191;-88
2022/10/16 02:49:29;;;;;;;5.93;2.13;;;;;;;11.78;62.15;99788.22;4976263;28;20706;-88
2022/10/16 02:51:55;;;;;;;6.30;2.43;;;;;;;11.73;62.71;99795.47;4976162;28;20181;-88
2022/10/16 02:54:20;;;;;;;3.67;2.07;;;;;;;11.69;63.51;99792.13;4976375;28;20368;-89
2022/10/16 02:56:46;;;;;;;6.83;2.40;;;;;;;11.65;64.16;99789.69;4976095;28;20538;-89
2022/10/16 02:59:11;;;;;;;7.87;2.60;;;;;;;11.65;65.16;99802.81;4976057;28;20203;-89
2022/10/16 03:01:36;;;;;;;6.23;2.20;;;;;;;11.78;65.45;99797.88;4976045;28;20191;-89
2022/10/16 03:04:02;;;;;;;3.87;2.23;;;;;;;11.83;66.03;99796.75;4975974;28;20239;-89
2022/10/16 03:06:27;;;;;;;5.03;2.23;;;;;;;11.88;65.42;99804.41;4975861;28;20209;-88
2022/10/16 03:08:53;;;;;;;4.83;2.50;;;;;;;11.92;65.46;99808.59;4975860;28;20240;-89
2022/10/16 03:11:18;;;;;;;10.13;2.80;;;;;;;11.98;64.42;99808.28;4976089;28;20168;-89
2022/10/16 03:13:44;;;;;;;4.03;2.17;;;;;;;11.97;63.79;99804.84;4976013;28;20181;-89
2022/10/16 03:16:09;;;;;;;9.00;2.83;;;;;;;11.90;63.53;99799.91;4975988;28;20168;-89
2022/10/16 03:18:35;;;;;;;6.20;1.80;;;;;;;11.92;63.36;99800.72;4975919;28;20173;-88
2022/10/16 03:21:00;;;;;;;4.97;2.60;;;;;;;11.91;63.85;99799.00;4975639;28;20177;-89
2022/10/16 03:23:26;;;;;;;6.33;2.33;;;;;;;12.00;63.28;99803.84;4975584;28;20623;-89
2022/10/16 03:25:51;;;;;;;5.30;1.83;;;;;;;11.97;63.47;99809.25;4975436;28;20236;-89
2022/10/16 03:28:16;;;;;;;6.00;3.27;;;;;;;11.89;63.98;99801.72;4975736;28;20181;-88
2022/10/16 03:30:43;;;;;;;7.13;2.70;;;;;;;11.94;63.95;99814.63;4975716;28;20244;-88
2022/10/16 03:33:09;;;;;;;3.90;2.20;;;;;;;11.92;64.74;99806.84;4990547;28;20302;-88
2022/10/16 03:35:34;;;;;;;5.20;2.43;;;;;;;12.02;64.73;99807.25;4974444;28;20626;-88
2022/10/16 03:38:00;;;;;;;3.27;1.83;;;;;;;11.99;64.80;99815.25;4975372;28;20208;-87
2022/10/16 03:40:25;;;;;;;5.40;2.67;;;;;;;11.94;64.58;99807.59;4975549;28;20324;-89
2022/10/16 03:42:51;;;;;;;5.37;2.30;;;;;;;11.88;65.25;99814.91;4990465;28;20199;-88
2022/10/16 03:45:17;;;;;;;4.13;2.67;;;;;;;11.92;66.18;99819.13;4975405;28;20227;-88
2022/10/16 03:47:42;;;;;;;5.80;2.70;;;;;;;11.86;66.51;99814.13;4975158;28;20234;-88
2022/10/16 03:50:08;;;;;;;5.67;2.73;;;;;;;11.92;67.00;99819.13;4975337;28;20329;-88
2022/10/16 03:52:34;;;;;;;3.90;2.33;;;;;;;11.96;66.00;99813.63;4975095;28;20176;-88
2022/10/16 03:54:59;;;;;;;5.00;3.03;;;;;;;11.94;65.79;99823.38;4990648;28;20192;-89
2022/10/16 03:57:25;;;;;;;4.77;2.67;;;;;;;11.90;64.90;99821.78;4975248;28;20192;-87
2022/10/16 03:59:50;;;;;;;8.53;2.77;;;;;;;11.92;64.77;99829.63;4974944;28;20264;-88
2022/10/16 04:02:16;;;;;;;5.30;2.10;;;;;;;11.92;64.55;99822.59;4974919;28;20639;-88
2022/10/16 04:04:41;;;;;;;9.73;2.63;;;;;;;11.95;64.20;99821.59;4990003;28;20255;-88
2022/10/16 04:07:07;;;;;;;4.80;2.53;;;;;;;11.95;64.28;99832.13;4974478;28;20184;-88
2022/10/16 04:09:33;;;;;;;10.73;2.50;;;;;;;11.85;63.92;99822.94;4974784;28;20173;-89
2022/10/16 04:11:58;;;;;;;7.33;2.77;;;;;;;11.80;64.54;99838.06;4975217;28;20182;-89
2022/10/16 04:14:23;;;;;;;6.10;2.63;;;;;;;11.82;63.90;99826.56;4975199;28;20190;-88
2022/10/16 04:16:49;;;;;;;5.67;3.20;;;;;;;11.77;64.02;99823.28;4974702;28;20296;-88
2022/10/16 04:19:14;;;;;;;4.07;2.27;;;;;;;11.73;64.31;99823.50;4989824;28;20177;-88
2022/10/16 04:21:40;;;;;;;5.00;2.63;;;;;;;11.69;64.77;99831.53;4974589;28;20176;-88
2022/10/16 04:24:05;;;;;;;3.77;2.20;;;;;;;11.70;64.97;99827.13;4974573;28;20176;-88
2022/10/16 04:26:31;;;;;;;6.63;2.63;;;;;;;11.71;64.61;99829.66;4974447;28;20209;-88
2022/10/16 04:28:56;;;;;;;4.33;2.40;;;;;;;11.70;64.56;99828.00;4974734;28;20178;-88
2022/10/16 04:31:22;;;;;;;5.20;2.70;;;;;;;11.65;64.85;99840.44;4974340;28;20208;-88
2022/10/16 04:33:47;;;;;;;6.80;3.13;;;;;;;11.64;64.69;99835.25;4974692;28;20171;-88
2022/10/16 04:36:13;;;;;;;4.43;2.90;;;;;;;11.62;64.76;99839.72;4974350;28;20200;-88
2022/10/16 04:38:39;;;;;;;5.57;2.43;;;;;;;11.64;64.33;99843.13;4974340;28;20242;-88
2022/10/16 04:41:06;;;;;;;7.37;2.83;;;;;;;11.59;64.19;99843.34;4973355;28;20180;-89
2022/10/16 04:43:32;;;;;;;4.07;2.27;;;;;;;11.56;64.40;99851.34;4989464;28;20184;-88
2022/10/16 04:45:58;;;;;;;6.90;2.90;;;;;;;11.55;64.29;99852.28;4974227;28;20231;-88
2022/10/16 04:48:23;;;;;;;6.87;2.67;;;;;;;11.51;64.31;99847.22;4974505;28;20627;-88
2022/10/16 04:50:49;;;;;;;2.97;1.77;;;;;;;11.47;64.74;99850.94;4974463;28;20180;-89
2022/10/16 04:53:14;;;;;;;3.17;2.17;;;;;;;11.43;64.73;99851.97;4974173;28;20180;-89
2022/10/16 04:55:41;;;;;;;4.43;2.03;;;;;;;11.46;65.25;99859.72;4974130;28;20204;-88
2022/10/16 04:58:06;;;;;;;4.80;2.37;;;;;;;11.49;65.44;99860.44;4974141;28;20630;-89
2022/10/16 05:00:32;;;;;;;4.40;2.90;;;;;;;11.47;65.67;99862.28;4974380;28;20191;-88
2022/10/16 05:02:59;;;;;;;3.83;2.30;;;;;;;11.48;65.87;99858.72;4974374;28;20626;-89
2022/10/16 05:05:25;;;;;;;5.47;2.60;;;;;;;11.51;65.93;99855.09;4974270;28;20211;-88
2022/10/16 05:07:50;;;;;;;3.83;2.00;;;;;;;11.53;65.98;99856.75;4974064;28;20184;-88
2022/10/16 05:10:16;;;;;;;5.03;2.07;;;;;;;11.61;66.02;99859.03;4974364;28;20177;-87
2022/10/16 05:12:41;;;;;;;8.87;2.70;;;;;;;11.66;65.96;99864.94;4974075;28;20181;-88
2022/10/16 05:15:07;;;;;;;7.10;2.43;;;;;;;11.75;66.32;99871.56;4974252;28;20172;-88
2022/10/16 05:17:32;;;;;;;12.13;2.33;;;;;;;11.92;66.10;99876.91;4974484;28;20638;-88
2022/10/16 05:19:58;;;;;;;6.37;2.17;;;;;;;12.00;66.64;99877.41;4976034;28;20207;-88
2022/10/16 05:22:23;;;;;;;5.43;2.93;;;;;;;12.18;67.05;99882.66;4977844;28;20274;-88
2022/10/16 05:24:49;;;;;;;6.30;2.20;;;;;;;12.42;67.22;99874.53;4977758;28;20208;-88
2022/10/16 05:27:18;;;;;;;4.00;2.67;;;;;;;12.64;66.96;99873.38;4976800;28;20529;-88
2022/10/16 05:29:48;;;;;;;5.10;2.73;;;;;;;12.85;66.76;99880.22;4976747;28;20185;-88
2022/10/16 05:32:15;;;;;;;7.77;2.73;;;;;;;12.97;67.60;99885.81;4977757;28;20207;-88
2022/10/16 05:34:40;;;;;;;4.77;2.80;;;;;;;13.04;66.85;99889.81;4977587;28;20239;-89
2022/10/16 05:37:06;;;;;;;5.00;2.60;;;;;;;13.04;65.25;99905.63;4977502;28;20646;-89
2022/10/16 05:39:31;;;;;;;10.07;3.77;;;;;;;13.18;64.42;99897.91;4969897;28;20196;-89
2022/10/16 05:41:57;;;;;;;12.07;3.30;;;;;;;13.32;64.38;99893.63;4970173;28;20603;-88
2022/10/16 05:44:22;;;;;;;6.93;2.93;;;;;;;13.49;64.43;99898.84;4973447;28;20195;-89
2022/10/16 05:46:48;;;;;;;6.90;3.20;;;;;;;13.68;63.36;99885.56;4976460;28;20185;-88
2022/10/16 05:49:13;;;;;;;6.27;2.30;;;;;;;13.98;62.67;99897.13;4977584;28;20188;-89
2022/10/16 05:51:39;;;;;;;8.77;3.10;;;;;;;14.16;61.88;99888.19;4976874;28;20549;-90
2022/10/16 05:54:04;;;;;;;7.57;3.63;;;;;;;14.21;61.39;99892.34;4977510;28;20175;-89
2022/10/16 05:56:30;;;;;;;8.47;3.57;;;;;;;14.24;60.66;99887.78;4976297;28;20190;-90
2022/10/16 05:58:55;;;;;;;7.80;3.43;;;;;;;14.45;60.38;99896.31;4976426;28;20180;-90
2022/10/16 06:01:23;;;;;;;6.87;3.50;;;;;;;14.82;59.20;99885.34;4977337;28;20190;-88
2022/10/16 06:03:53;;;;;;;6.63;3.47;;;;;;;15.34;57.78;99889.25;4977086;28;20188;-89
2022/10/16 06:06:21;;;;;;;10.37;4.27;;;;;;;15.80;56.95;99902.38;4976894;28;20211;-89
2022/10/16 06:08:48;;;;;;;4.60;3.10;;;;;;;16.36;54.81;99898.78;4976140;28;20195;-89
2022/10/16 06:11:17;;;;;;;7.77;3.57;;;;;;;17.30;52.56;99906.63;4992197;28;20196;-90
2022/10/16 06:13:42;;;;;;;11.13;4.80;;;;;;;18.34;49.48;99893.13;4976773;28;20193;-89
2022/10/16 06:16:09;;;;;;;6.73;3.63;;;;;;;19.66;45.50;99893.78;4977373;28;20179;-89
2022/10/16 06:18:35;;;;;;;10.27;3.33;;;;;;;20.60;42.93;99892.41;4976789;28;20186;-88
2022/10/16 06:21:13;;;;;;;7.63;3.33;;;;;;;21.78;40.59;99895.69;4977283;28;20182;-90
2022/10/16 06:23:39;;;;;;;9.37;3.60;;;;;;;22.81;38.61;99889.16;4976995;28;20178;-89
2022/10/16 06:26:12;;;;;;;11.13;3.20;;;;;;;22.99;38.12;99895.50;4976813;28;20595;-90
2022/10/16 06:28:38;;;;;;;6.20;2.97;;;;;;;23.12;37.94;99901.41;4977189;28;20168;-89
2022/10/16 06:31:05;;;;;;;5.97;2.70;;;;;;;22.58;38.81;99905.44;4974688;28;20184;-92
2022/10/16 06:33:31;;;;;;;16.43;7.63;;;;;;;22.52;39.31;99914.00;4975891;28;20607;-90
2022/10/16 06:36:02;;;;;;;22.90;9.87;;;;;;;22.72;39.28;99911.41;4975562;28;20611;-90
2022/10/16 06:38:28;;;;;;;22.53;7.33;;;;;;;23.19;38.36;99916.75;4975742;28;20181;-89
2022/10/16 06:40:54;;;;;;;9.23;4.20;;;;;;;23.71;37.49;99912.78;4975434;28;20184;-91
2022/10/16 06:43:19;;;;;;;4.93;2.00;;;;;;;23.92;36.22;99909.06;4976678;28;20180;-90
2022/10/16 06:45:53;;;;;;;5.23;2.20;;;;;;;23.90;36.13;99914.53;4976232;28;20558;-90
2022/10/16 06:48:19;;;;;;;3.13;1.60;;;;;;;23.79;36.32;99925.44;4975473;28;20184;-91
2022/10/16 06:51:14;;;;;;;6.93;2.03;;;;;;;24.01;36.19;99924.22;4976443;28;20287;-90
2022/10/16 06:53:43;;;;;;;3.83;1.83;;;;;;;24.30;35.52;99930.34;4975282;28;20200;-92
2022/10/16 06:56:30;;;;;;;3.70;1.73;;;;;;;23.94;35.07;99923.97;4974903;28;20199;-92
2022/10/16 06:58:56;;;;;;;4.43;2.10;;;;;;;24.06;34.96;99927.31;4975449;28;20597;-92
2022/10/16 07:01:24;;;;;;;5.20;1.80;;;;;;;24.14;34.64;99930.13;4975218;28;20180;-92
2022/10/16 07:03:50;;;;;;;5.47;2.00;;;;;;;24.16;34.93;99933.53;4975245;28;20219;-90
2022/10/16 07:06:23;;;;;;;3.10;1.40;;;;;;;23.65;34.47;99926.75;4975901;28;20212;-88
2022/10/16 07:08:50;;;;;;;3.40;1.70;;;;;;;23.15;35.53;99935.91;4959181;28;20250;-89
2022/10/16 07:11:19;;;;;;;4.80;1.70;;;;;;;22.53;35.79;99945.09;4976416;28;20173;-89
2022/10/16 07:13:47;;;;;;;3.70;2.03;;;;;;;22.34;37.57;99939.69;4975832;28;20181;-90
2022/10/16 07:16:19;;;;;;;4.13;1.83;;;;;;;22.02;36.97;99945.19;4975981;28;20187;-89
2022/10/16 07:18:51;;;;;;;4.70;2.10;;;;;;;21.51;38.18;99956.78;4975723;28;20172;-90
2022/10/16 07:21:22;;;;;;;3.63;1.70;;;;;;;21.10;38.04;99961.06;4975550;28;20163;-90
2022/10/16 07:23:53;;;;;;;4.00;1.63;;;;;;;20.98;39.55;99956.72;4973506;28;20200;-90
2022/10/16 07:26:22;;;;;;;4.27;2.10;;;;;;;20.93;39.20;99953.59;4975792;28;20212;-90
2022/10/16 07:28:49;;;;;;;7.10;2.33;;;;;;;20.66;39.19;99956.69;4975537;28;20649;-90
2022/10/16 07:31:16;;;;;;;9.67;2.53;;;;;;;20.53;39.52;99960.47;4974395;28;20188;-90
2022/10/16 07:33:44;;;;;;;3.90;2.10;;;;;;;20.29;39.59;99951.78;4974703;28;20251;-89
2022/10/16 07:36:12;;;;;;;3.20;1.80;;;;;;;20.17;39.55;99949.09;4975340;28;20180;-90
2022/10/16 07:38:39;;;;;;;4.77;1.90;;;;;;;20.10;40.26;99950.53;4975332;28;20224;-90
2022/10/16 07:41:09;;;;;;;3.60;1.47;;;;;;;20.06;39.70;99950.91;4975737;28;20279;-91
2022/10/16 07:43:35;;;;;;;3.57;1.43;;;;;;;19.85;40.82;99952.56;4975254;28;20188;-90
2022/10/16 07:46:01;;;;;;;2.60;1.27;;;;;;;19.95;40.07;99954.41;4975463;28;20296;-91
2022/10/16 07:48:31;;;;;;;4.23;1.50;;;;;;;19.96;39.63;99953.44;4974652;28;20219;-90
2022/10/16 07:51:05;;;;;;;3.63;1.80;;;;;;;19.89;40.17;99949.56;4962318;28;20195;-89
2022/10/16 07:53:33;;;;;;;3.37;1.70;;;;;;;19.94;40.22;99955.34;4955955;28;20180;-88
2022/10/16 07:56:02;;;;;;;5.80;1.47;;;;;;;19.89;40.44;99954.06;4964000;28;20182;-89
2022/10/16 07:58:32;;;;;;;4.23;1.83;;;;;;;19.87;40.87;99956.81;4979298;28;20652;-89
2022/10/16 08:01:03;;;;;;;2.90;1.70;;;;;;;19.90;40.28;99950.41;4973548;28;20228;-89
2022/10/16 08:03:30;;;;;;;3.33;1.60;;;;;;;20.04;40.26;99951.03;4974600;28;20172;-88
2022/10/16 08:05:58;;;;;;;6.23;1.93;;;;;;;20.16;39.40;99943.88;4969086;28;20218;-89
2022/10/16 08:08:35;;;;;;;3.80;1.63;;;;;;;20.26;39.06;99950.19;4974866;28;20174;-89
2022/10/16 08:11:03;;;;;;;4.80;1.77;;;;;;;20.29;39.87;99946.44;4973645;28;20681;-89
2022/10/16 08:13:30;;;;;;;4.00;1.90;;;;;;;20.32;38.58;99943.53;4974231;28;20283;-89
2022/10/16 08:16:09;;;;;;;4.40;1.90;;;;;;;20.18;39.16;99948.13;4963492;28;20189;-88
2022/10/16 08:18:40;;;;;;;4.20;1.67;;;;;;;20.35;38.42;99951.28;4975137;28;20178;-89
2022/10/16 08:21:12;;;;;;;4.63;1.80;;;;;;;20.45;38.93;99946.91;4974604;28;20188;-89
2022/10/16 08:23:37;;;;;;;2.83;2.00;;;;;;;20.49;37.75;99961.69;4975155;28;20618;-89
2022/10/16 08:26:06;;;;;;;4.70;1.90;;;;;;;20.67;38.48;99958.41;4974735;28;20208;-88
2022/10/16 08:28:31;;;;;;;6.07;3.33;;;;;;;20.77;37.16;99956.69;4974743;28;20645;-88
2022/10/16 08:31:10;;;;;;;4.43;2.43;;;;;;;20.49;37.36;99953.72;4973356;28;20192;-89
2022/10/16 08:33:36;;;;;;;6.10;2.87;;;;;;;20.69;37.93;99960.94;4974876;28;20166;-92
2022/10/16 08:36:03;;;;;;;8.87;3.03;;;;;;;20.91;37.03;99954.69;4990486;28;20625;-93
2022/10/16 08:38:28;;;;;;;5.53;3.00;;;;;;;20.98;36.27;99951.41;4974909;28;20255;-93
2022/10/16 08:41:02;;;;;;;6.87;3.33;;;;;;;20.94;36.42;99960.59;4974575;28;20180;-92
2022/10/16 08:43:35;;;;;;;9.30;3.37;;;;;;;21.15;36.57;99952.69;4974538;28;20181;-92
2022/10/16 08:46:21;;;;;;;6.70;3.37;;;;;;;21.22;36.32;99952.06;4990709;28;20544;-92
2022/10/16 08:48:59;;;;;;;6.67;3.30;;;;;;;21.22;35.50;99953.88;4973464;28;20208;-92
2022/10/16 08:51:34;;;;;;;7.57;3.77;;;;;;;21.43;35.18;99952.91;4989577;28;20333;-93
2022/10/16 08:54:05;;;;;;;9.77;3.47;;;;;;;21.53;35.08;99947.66;4989552;28;20180;-92
2022/10/16 08:56:31;;;;;;;6.03;3.70;;;;;;;21.68;35.84;99956.19;4974599;28;20182;-92
2022/10/16 08:58:58;;;;;;;6.10;3.87;;;;;;;21.48;35.51;99954.38;4974542;28;20570;-94
2022/10/16 09:01:37;;;;;;;8.00;4.57;;;;;;;21.65;35.34;99953.75;4989527;28;20208;-91
2022/10/16 09:04:31;;;;;;;10.00;3.70;;;;;;;21.76;34.76;99951.03;4989527;28;20251;-92
2022/10/16 09:07:21;;;;;;;7.87;3.60;;;;;;;21.91;35.06;99939.06;4974320;28;20700;-92
2022/10/16 09:10:38;;;;;;;8.70;3.50;;;;;;;22.02;34.89;99944.31;4989344;28;20180;-92
2022/10/16 09:13:29;;;;;;;9.30;3.60;;;;;;;22.18;35.02;99936.66;4989359;28;20181;-92
2022/10/16 09:16:03;;;;;;;6.90;3.83;;;;;;;22.23;34.50;99942.44;4974152;28;20161;-92
2022/10/16 09:19:07;;;;;;;9.50;3.50;;;;;;;22.40;33.52;99938.31;4974463;28;20199;-93
2022/10/16 09:21:38;;;;;;;7.87;3.20;;;;;;;22.55;32.67;99932.44;4962911;28;20634;-92
2022/10/16 09:24:19;;;;;;;7.17;4.10;;;;;;;22.72;31.68;99933.59;4974055;28;20164;-93
2022/10/16 09:26:45;;;;;;;8.50;4.17;;;;;;;22.85;32.31;99936.03;4989127;28;20223;-91
2022/10/16 09:29:15;;;;;;;8.63;4.10;;;;;;;22.57;32.68;99935.81;4972958;28;20180;-91
2022/10/16 09:31:41;;;;;;;7.67;4.13;;;;;;;22.48;32.37;99947.31;4973667;28;20196;-91
2022/10/16 09:34:26;;;;;;;8.83;3.67;;;;;;;22.57;32.73;99929.63;4974223;28;20216;-92
2022/10/16 09:36:51;;;;;;;7.20;3.77;;;;;;;22.61;32.08;99931.03;4973896;28;20192;-92
2022/10/16 09:39:17;;;;;;;9.33;4.70;;;;;;;22.92;32.34;99929.16;4973858;28;20622;-91
2022/10/16 09:41:45;;;;;;;6.50;3.30;;;;;;;22.96;32.45;99927.88;4974274;28;20271;-93
2022/10/16 09:44:23;;;;;;;10.83;4.57;;;;;;;22.98;32.17;99920.56;4989574;28;20176;-92
2022/10/16 09:46:48;;;;;;;7.60;4.20;;;;;;;23.23;31.80;99923.53;4972891;28;20219;-94
2022/10/16 09:49:23;;;;;;;7.33;3.97;;;;;;;23.32;31.26;99923.66;4989091;28;20181;-92
2022/10/16 09:51:49;;;;;;;9.17;4.37;;;;;;;23.07;32.55;99917.91;4973961;28;20200;-93
2022/10/16 09:54:20;;;;;;;8.57;4.37;;;;;;;23.19;32.72;99918.59;4974008;28;20184;-92
2022/10/16 09:56:51;;;;;;;7.10;4.20;;;;;;;23.45;32.28;99913.53;4973992;28;20231;-93
2022/10/16 09:59:26;;;;;;;16.17;5.37;;;;;;;23.53;31.66;99919.84;4972888;28;20219;-91
2022/10/16 10:01:55;;;;;;;8.70;3.87;;;;;;;23.66;31.20;99917.69;4973696;28;20164;-93
2022/10/16 10:04:23;;;;;;;8.70;3.50;;;;;;;23.56;31.89;99914.22;4972877;28;20189;-93
2022/10/16 10:06:54;;;;;;;9.43;4.60;;;;;;;23.51;31.32;99911.13;4992147;28;20208;-92
2022/10/16 10:09:29;;;;;;;10.77;4.70;;;;;;;23.89;30.68;99903.97;4977456;28;20247;-93
2022/10/16 10:11:59;;;;;;;7.13;3.80;;;;;;;24.17;31.10;99909.25;4976939;28;20688;-93
2022/10/16 10:14:37;;;;;;;8.10;4.77;;;;;;;24.16;30.31;99898.69;4976090;28;20188;-93
2022/10/16 10:17:05;;;;;;;8.67;3.93;;;;;;;24.24;30.08;99906.84;4977579;28;20567;-92
2022/10/16 10:19:47;;;;;;;8.37;4.10;;;;;;;24.40;29.09;99890.94;4977049;28;20172;-94
2022/10/16 10:22:36;;;;;;;8.87;4.23;;;;;;;24.52;29.09;99895.09;4992047;28;20622;-92
2022/10/16 10:25:08;;;;;;;10.10;4.43;;;;;;;24.68;28.54;99892.59;4991966;28;20235;-92
2022/10/16 10:27:52;;;;;;;11.80;4.07;;;;;;;24.50;28.95;99902.47;4991992;28;20185;-92
2022/10/16 10:30:48;;;;;;;6.57;3.97;;;;;;;24.38;29.33;99899.13;4977024;28;20179;-92
2022/10/16 10:33:35;;;;;;;7.50;3.57;;;;;;;24.40;28.98;99890.94;4961498;28;20295;-91
2022/10/16 10:36:28;;;;;;;7.73;3.60;;;;;;;24.38;28.91;99880.38;4956372;28;20200;-90
2022/10/16 10:39:05;;;;;;;8.50;3.43;;;;;;;24.34;29.10;99899.59;4957290;28;20252;-90
2022/10/16 10:42:09;;;;;;;8.43;4.30;;;;;;;24.42;29.25;99891.66;4956213;28;20180;-91
2022/10/16 10:44:47;;;;;;;6.90;3.03;;;;;;;24.55;29.04;99881.41;4955716;28;20223;-90
2022/10/16 10:47:33;;;;;;;7.07;3.07;;;;;;;24.48;28.99;99880.31;4956078;28;20181;-92
2022/10/16 10:50:25;;;;;;;7.47;3.47;;;;;;;24.74;28.07;99875.88;4969601;28;20180;-92
2022/10/16 10:53:11;;;;;;;5.40;3.33;;;;;;;24.62;28.17;99878.94;4975437;28;20255;-91
2022/10/16 10:55:42;;;;;;;5.23;2.90;;;;;;;24.56;28.30;99872.34;4975261;28;20247;-92
2022/10/16 10:58:35;;;;;;;7.40;3.23;;;;;;;24.73;27.83;99868.88;4975304;28;20259;-92
2022/10/16 11:01:03;;;;;;;5.30;3.03;;;;;;;24.73;28.02;99865.34;4976588;28;20251;-91
2022/10/16 11:03:35;;;;;;;8.40;3.20;;;;;;;24.83;28.37;99858.94;4976168;28;20181;-92
2022/10/16 11:06:12;;;;;;;7.63;3.53;;;;;;;24.88;27.86;99853.94;4975875;28;20291;-92
2022/10/16 11:08:50;;;;;;;5.40;2.70;;;;;;;24.66;28.11;99861.59;4972979;28;20176;-90
2022/10/16 11:11:23;;;;;;;8.07;3.63;;;;;;;24.80;28.16;99875.31;4973939;28;20165;-90
2022/10/16 11:13:59;;;;;;;8.57;3.67;;;;;;;24.51;28.44;99863.94;4973785;28;20161;-90
2022/10/16 11:16:48;;;;;;;7.23;3.17;;;;;;;24.48;28.47;99861.53;4973060;28;20169;-91
2022/10/16 11:19:25;;;;;;;8.80;3.70;;;;;;;24.74;28.61;99853.59;4973699;28;20168;-91
2022/10/16 11:21:59;;;;;;;7.67;3.43;;;;;;;24.79;28.42;99846.81;4974425;28;20168;-90
2022/10/16 11:24:48;;;;;;;8.70;3.30;;;;;;;25.04;27.26;99855.94;4975994;28;20168;-91
2022/10/16 11:27:22;;;;;;;5.97;3.10;;;;;;;25.27;27.07;99845.53;4975761;28;20223;-90
2022/10/16 11:30:00;;;;;;;7.07;3.40;;;;;;;25.24;26.12;99856.56;4975926;28;20168;-89
2022/10/16 11:32:48;;;;;;;8.27;3.33;;;;;;;25.23;26.27;99850.38;4974425;28;20196;-89
2022/10/16 11:35:32;;;;;;;5.97;3.30;;;;;;;25.23;26.67;99854.91;4985499;28;20184;-90
2022/10/16 11:38:03;;;;;;;7.80;2.90;;;;;;;25.35;26.23;99850.94;4958747;28;20199;-91
2022/10/16 11:40:43;;;;;;;5.53;2.87;;;;;;;25.37;26.58;99846.25;4975675;28;20654;-91
2022/10/16 11:43:31;;;;;;;6.87;3.10;;;;;;;25.44;26.50;99845.50;4974442;28;20196;-91
2022/10/16 11:46:04;;;;;;;5.90;2.33;;;;;;;25.57;25.85;99837.06;4974509;28;20196;-93
2022/10/16 11:48:56;;;;;;;5.60;2.80;;;;;;;25.38;26.41;99843.44;4990765;28;20178;-91
2022/10/16 11:51:42;;;;;;;7.27;2.87;;;;;;;25.63;25.60;99837.25;4967735;28;20192;-93